FKB weather

Karlsruhe Baden-Baden Airport
Baden-Baden, Baden-W├╝rttemberg, Germany

Public forecast

Using degrees Celsius for public forecast. Weather courtesy of forecast.io.

METAR (pilot weather report)

Retrieved 2019/09/19 15:20 UTC (18 minutes ago):

EDSB 191520Z 03013KT 360V060 CAVOK 18/03 Q1027

TAF (pilot weather forecast)

Retrieved 2019/09/19 12:29 UTC (3 hours ago):

TAF EDSB 191100Z 1912/2012 03009KT CAVOK PROB30 TEMPO 1912/1917 03015G25KT